KRUT

Rutland - Southern Vermont Regional Airport

Rutland, Vermont, USA
METAR KRUT 201556Z AUTO 24017G24KT 10SM FEW038 13/04 A2958 RMK AO2 SLP038 T01330039 $
Observed Flight Rules
Oct-20 @ 15:56 UTC (an hour ago) Visual Flight Rules
Wind Visibility Clouds
240° at 17 knots
 Gusting to 24 knots
10 miles
  • Few at 3,800' AGL
Temperatures Readings
Current 13°C / 55°F
Dewpoint 4°C / 39°F
Humidity 55%
Altimeter 29.58" Hg
Pressure 1003.8 hPa
Elevation 240
METAR KRUT 201556Z AUTO 24017G24KT 10SM FEW038 13/04 A2958 RMK AO2 SLP038 T01330039 $
Observed Flight Rules
Oct-20 @ 15:56 UTC
(an hour ago)
VFR
Wind Visibility
240° at 17 knots
 Gusting to 24 knots
10 miles
Clouds
  • Few at 3,800' AGL
Temperature Dewpoint
13°C / 55°F 4°C / 39°F
Humidity Altimeter Pressure
55% 29.58" Hg 1003.8 hPa